createdAt,value
2022-08-29T00:00:50.593Z,59.25
2022-08-29T00:03:18.457Z,59.64
2022-08-29T00:05:49.870Z,59.50
2022-08-29T00:08:17.790Z,59.50
2022-08-29T00:10:45.265Z,59.43
2022-08-29T00:13:13.912Z,59.44
2022-08-29T00:15:45.063Z,59.57
2022-08-29T00:18:14.570Z,59.54
2022-08-29T00:20:42.812Z,59.72
2022-08-29T00:23:10.363Z,59.76
2022-08-29T00:25:38.143Z,59.93
2022-08-29T00:28:06.249Z,59.73
2022-08-29T00:30:34.428Z,60.01
2022-08-29T00:33:02.146Z,60.53
2022-08-29T00:35:33.636Z,60.35
2022-08-29T00:38:01.777Z,60.24
2022-08-29T00:40:42.705Z,60.10
2022-08-29T00:43:27.639Z,60.30
2022-08-29T00:46:09.210Z,60.58
2022-08-29T00:48:39.096Z,60.67
2022-08-29T00:51:09.250Z,60.96
2022-08-29T00:53:39.704Z,61.05
2022-08-29T00:56:08.919Z,60.79
2022-08-29T00:59:00.467Z,60.47
2022-08-29T01:01:27.924Z,60.50
2022-08-29T01:03:55.652Z,60.69
2022-08-29T01:06:23.976Z,60.56
2022-08-29T01:08:57.353Z,60.74
2022-08-29T01:11:46.731Z,60.43
2022-08-29T01:14:16.356Z,60.75
2022-08-29T01:16:46.023Z,60.64
2022-08-29T01:19:43.826Z,60.86
2022-08-29T01:22:36.652Z,60.55
2022-08-29T01:25:14.291Z,60.91
2022-08-29T01:27:44.444Z,60.82
2022-08-29T01:30:12.146Z,61.22
2022-08-29T01:32:39.479Z,61.58
2022-08-29T01:35:08.607Z,61.56
2022-08-29T01:37:37.408Z,61.46
2022-08-29T01:40:06.345Z,61.28
2022-08-29T01:42:35.452Z,61.39
2022-08-29T01:45:05.591Z,61.61
2022-08-29T01:47:38.779Z,61.54
2022-08-29T01:50:11.593Z,61.66
2022-08-29T01:52:39.308Z,61.73
2022-08-29T01:55:06.903Z,61.72
2022-08-29T01:57:34.228Z,61.76
2022-08-29T02:00:02.328Z,61.59
2022-08-29T02:02:32.716Z,62.06
2022-08-29T02:05:00.456Z,61.77
2022-08-29T02:07:29.409Z,62.01
2022-08-29T02:09:56.782Z,62.37
2022-08-29T02:12:25.945Z,62.61
2022-08-29T02:14:53.718Z,62.25
2022-08-29T02:17:21.200Z,62.17
2022-08-29T02:19:48.779Z,62.33
2022-08-29T02:22:16.255Z,62.55
2022-08-29T02:24:43.835Z,62.37
2022-08-29T02:27:12.567Z,62.55
2022-08-29T02:29:40.064Z,62.38
2022-08-29T02:32:10.907Z,62.45
2022-08-29T02:34:38.673Z,62.59
2022-08-29T02:37:06.590Z,62.50
2022-08-29T02:39:34.330Z,62.38
2022-08-29T02:42:02.697Z,62.99
2022-08-29T02:44:30.084Z,62.75
2022-08-29T02:46:57.525Z,62.57
2022-08-29T02:49:25.194Z,62.56
2022-08-29T02:51:52.546Z,62.45
2022-08-29T02:54:19.913Z,62.31
2022-08-29T02:56:47.518Z,63.21
2022-08-29T02:59:14.891Z,63.18
2022-08-29T03:01:42.234Z,63.11
2022-08-29T03:04:09.864Z,62.88
2022-08-29T03:06:37.439Z,62.89
2022-08-29T03:09:05.191Z,62.81
2022-08-29T03:11:32.799Z,62.97
2022-08-29T03:14:00.947Z,63.63
2022-08-29T03:16:28.395Z,63.53
2022-08-29T03:18:56.159Z,63.15
2022-08-29T03:21:26.052Z,62.63
2022-08-29T03:23:56.170Z,63.03
2022-08-29T03:26:24.419Z,63.22
2022-08-29T03:28:51.887Z,62.90
2022-08-29T03:31:19.303Z,62.69
2022-08-29T03:33:47.056Z,62.98
2022-08-29T03:36:15.021Z,63.06
2022-08-29T03:38:43.704Z,63.28
2022-08-29T03:41:11.676Z,63.49
2022-08-29T03:43:39.083Z,63.29
2022-08-29T03:46:06.515Z,63.17
2022-08-29T03:48:34.172Z,63.10
2022-08-29T03:51:01.545Z,63.48
2022-08-29T03:53:28.882Z,64.42
2022-08-29T03:55:58.369Z,63.58
2022-08-29T03:58:25.697Z,63.71
2022-08-29T04:00:53.065Z,63.35
2022-08-29T04:03:26.555Z,62.81
2022-08-29T04:05:59.694Z,62.94
2022-08-29T04:08:27.312Z,63.00
2022-08-29T04:10:54.708Z,62.77
2022-08-29T04:13:22.038Z,62.58
2022-08-29T04:15:50.191Z,62.35
2022-08-29T04:18:21.605Z,62.36
2022-08-29T04:20:50.825Z,62.34
2022-08-29T04:23:18.250Z,62.07
2022-08-29T04:25:45.614Z,61.75
2022-08-29T04:28:14.728Z,61.76
2022-08-29T04:30:51.528Z,61.54
2022-08-29T04:33:23.700Z,62.04
2022-08-29T04:35:52.112Z,62.20
2022-08-29T04:38:19.787Z,61.82
2022-08-29T04:40:47.474Z,61.81
2022-08-29T04:43:14.899Z,61.90
2022-08-29T04:45:42.535Z,62.06
2022-08-29T04:48:10.818Z,61.92
2022-08-29T04:50:38.956Z,61.91
2022-08-29T04:53:06.580Z,61.72
2022-08-29T04:55:33.942Z,61.45
2022-08-29T04:58:01.678Z,61.73
2022-08-29T05:00:31.635Z,61.64
2022-08-29T05:02:59.627Z,61.98
2022-08-29T05:05:27.899Z,61.94
2022-08-29T05:07:55.855Z,61.93
2022-08-29T05:10:24.069Z,61.88
2022-08-29T05:12:51.452Z,61.54
2022-08-29T05:15:19.155Z,61.75
2022-08-29T05:17:46.547Z,61.45
2022-08-29T05:20:13.983Z,61.35
2022-08-29T05:22:42.288Z,60.55
2022-08-29T05:25:15.791Z,60.47
2022-08-29T05:27:45.963Z,60.40
2022-08-29T05:30:14.479Z,60.34
2022-08-29T05:32:42.324Z,60.29
2022-08-29T05:35:10.440Z,59.20
2022-08-29T05:37:38.680Z,59.41
2022-08-29T05:40:06.499Z,59.39
2022-08-29T05:42:34.107Z,58.89
2022-08-29T05:45:04.539Z,58.79
2022-08-29T05:47:32.453Z,58.71
2022-08-29T05:50:00.274Z,58.28
2022-08-29T05:52:27.862Z,57.99
2022-08-29T05:54:55.215Z,57.94
2022-08-29T05:57:23.697Z,57.61
2022-08-29T05:59:52.847Z,57.98
2022-08-29T06:02:22.023Z,57.52
2022-08-29T06:04:52.844Z,56.87
2022-08-29T06:07:20.208Z,56.71
2022-08-29T06:09:47.740Z,56.63
2022-08-29T06:12:15.619Z,56.85
2022-08-29T06:14:50.279Z,57.05
2022-08-29T06:17:18.496Z,56.20
2022-08-29T06:19:45.835Z,56.13
2022-08-29T06:22:13.508Z,55.77
2022-08-29T06:24:44.466Z,55.83
2022-08-29T06:27:12.648Z,55.40
2022-08-29T06:29:43.508Z,54.91
2022-08-29T06:32:12.889Z,54.76
2022-08-29T06:34:40.309Z,54.31
2022-08-29T06:37:07.684Z,54.21
2022-08-29T06:39:35.318Z,54.21
2022-08-29T06:42:02.675Z,53.30
2022-08-29T06:44:31.887Z,53.13
2022-08-29T06:46:59.635Z,52.28
2022-08-29T06:49:27.749Z,52.16
2022-08-29T06:51:58.116Z,51.53
2022-08-29T06:54:28.323Z,51.37
2022-08-29T06:56:57.598Z,50.14
2022-08-29T06:59:25.173Z,50.47
2022-08-29T07:01:55.131Z,50.06
2022-08-29T07:04:22.655Z,49.49
2022-08-29T07:06:54.082Z,49.14
2022-08-29T07:09:21.493Z,49.34
2022-08-29T07:11:48.919Z,49.45
2022-08-29T07:14:16.577Z,49.31
2022-08-29T07:16:44.115Z,49.28
2022-08-29T07:19:11.667Z,49.14
2022-08-29T07:21:39.364Z,48.66
2022-08-29T07:24:07.637Z,48.68
2022-08-29T07:26:38.874Z,48.71
2022-08-29T07:29:10.441Z,47.96
2022-08-29T07:31:39.139Z,48.07
2022-08-29T07:34:07.412Z,48.57
2022-08-29T07:36:35.324Z,47.85
2022-08-29T07:39:06.062Z,47.63
2022-08-29T07:41:33.750Z,48.67
2022-08-29T07:44:01.159Z,48.02
2022-08-29T07:46:29.123Z,47.58
2022-08-29T07:48:58.423Z,47.58
2022-08-29T07:51:27.082Z,46.73
2022-08-29T07:53:55.009Z,46.96
2022-08-29T07:56:25.964Z,46.80
2022-08-29T07:58:53.878Z,46.99
2022-08-29T08:01:22.008Z,46.66
2022-08-29T08:03:51.124Z,46.09
2022-08-29T08:06:23.538Z,45.46
2022-08-29T08:08:52.107Z,47.03
2022-08-29T08:11:20.831Z,46.50
2022-08-29T08:13:48.201Z,47.31
2022-08-29T08:16:20.409Z,46.57
2022-08-29T08:18:48.635Z,46.53
2022-08-29T08:21:16.289Z,46.09
2022-08-29T08:23:43.852Z,45.37
2022-08-29T08:26:12.843Z,46.57
2022-08-29T08:28:41.978Z,46.14
2022-08-29T08:31:11.107Z,46.08
2022-08-29T08:33:42.709Z,44.81
2022-08-29T08:36:14.364Z,46.17
2022-08-29T08:38:42.171Z,45.31
2022-08-29T08:41:36.335Z,44.65
2022-08-29T08:44:07.100Z,44.50
2022-08-29T08:46:36.380Z,44.75
2022-08-29T08:49:09.122Z,44.59
2022-08-29T08:51:38.846Z,44.12
2022-08-29T08:54:11.432Z,44.01
2022-08-29T08:56:42.632Z,44.41
2022-08-29T08:59:32.111Z,43.19
2022-08-29T09:02:37.039Z,44.10
2022-08-29T09:05:23.101Z,44.75
2022-08-29T09:08:15.003Z,44.66
2022-08-29T09:11:03.230Z,44.03
2022-08-29T09:14:16.814Z,44.99
2022-08-29T09:16:49.318Z,45.57
2022-08-29T09:19:17.719Z,45.53
2022-08-29T09:21:59.270Z,45.12
2022-08-29T09:25:11.844Z,44.62
2022-08-29T09:27:39.638Z,44.74
2022-08-29T09:30:16.357Z,44.65
2022-08-29T09:33:12.674Z,45.00
2022-08-29T09:35:51.781Z,44.09
2022-08-29T09:38:25.597Z,44.22
2022-08-29T09:41:00.086Z,44.12
2022-08-29T09:43:33.748Z,44.62
2022-08-29T09:46:16.325Z,44.57
2022-08-29T09:48:52.517Z,43.45
2022-08-29T09:51:24.411Z,43.46
2022-08-29T09:53:52.980Z,43.52
2022-08-29T09:56:24.235Z,43.22
2022-08-29T09:59:01.945Z,43.44
2022-08-29T10:01:30.354Z,44.17
2022-08-29T10:04:02.089Z,43.62
2022-08-29T10:06:37.101Z,43.56
2022-08-29T10:09:12.462Z,43.47
2022-08-29T10:11:54.286Z,42.82
2022-08-29T10:14:31.663Z,42.95
2022-08-29T10:17:21.322Z,42.50
2022-08-29T10:19:49.216Z,42.32
2022-08-29T10:22:50.602Z,43.24
2022-08-29T10:25:40.360Z,42.51
2022-08-29T10:28:40.012Z,42.30
2022-08-29T10:31:33.797Z,41.39
2022-08-29T10:34:16.975Z,41.47
2022-08-29T10:36:51.407Z,40.73
2022-08-29T10:39:36.139Z,41.57
2022-08-29T10:42:14.015Z,40.78
2022-08-29T10:44:57.745Z,39.92
2022-08-29T10:47:29.503Z,40.49
2022-08-29T10:50:16.888Z,40.79
2022-08-29T10:53:09.843Z,41.07
2022-08-29T10:55:44.704Z,41.50
2022-08-29T10:58:28.306Z,41.17
2022-08-29T11:01:05.485Z,40.45
2022-08-29T11:03:43.095Z,40.46
2022-08-29T11:06:29.743Z,39.82
2022-08-29T11:09:03.718Z,40.48
2022-08-29T11:11:32.226Z,39.95
2022-08-29T11:14:05.736Z,41.25
2022-08-29T11:16:44.017Z,41.26
2022-08-29T11:19:32.915Z,40.39
2022-08-29T11:22:04.716Z,40.85
2022-08-29T11:24:35.551Z,40.83
2022-08-29T11:27:57.083Z,39.80
2022-08-29T11:31:01.443Z,41.02
2022-08-29T11:33:46.671Z,40.27
2022-08-29T11:36:41.856Z,39.33
2022-08-29T11:39:16.100Z,39.69
2022-08-29T11:41:48.867Z,40.55
2022-08-29T11:44:29.884Z,39.78
2022-08-29T11:46:57.940Z,39.59
2022-08-29T11:49:32.130Z,39.39
2022-08-29T11:52:01.761Z,40.32
2022-08-29T11:54:28.998Z,40.25
2022-08-29T11:57:02.699Z,39.63
2022-08-29T11:59:48.873Z,39.84
2022-08-29T12:02:28.173Z,38.91
2022-08-29T12:05:20.713Z,40.15
2022-08-29T12:07:49.488Z,39.84
2022-08-29T12:10:25.833Z,38.99
2022-08-29T12:12:58.931Z,39.76
2022-08-29T12:15:32.751Z,39.17
2022-08-29T12:18:23.172Z,39.70
2022-08-29T12:20:55.637Z,40.19
2022-08-29T12:23:28.147Z,39.89
2022-08-29T12:26:21.466Z,39.78
2022-08-29T12:28:57.651Z,38.97
2022-08-29T12:31:51.311Z,38.67
2022-08-29T12:34:37.895Z,39.03
2022-08-29T12:37:30.743Z,38.49
2022-08-29T12:40:46.176Z,39.30
2022-08-29T12:43:34.546Z,38.65
2022-08-29T12:46:03.957Z,38.01
2022-08-29T12:48:40.196Z,39.57
2022-08-29T12:51:07.637Z,38.75
2022-08-29T12:53:36.847Z,38.75
2022-08-29T12:56:18.029Z,38.44
2022-08-29T12:58:55.202Z,37.95
2022-08-29T13:01:25.331Z,38.39
2022-08-29T13:04:17.867Z,38.67
2022-08-29T13:06:56.033Z,39.07
2022-08-29T13:09:44.558Z,38.52
2022-08-29T13:12:24.208Z,38.61
2022-08-29T13:15:19.203Z,38.41
2022-08-29T13:17:49.331Z,39.16
2022-08-29T13:20:40.115Z,38.33
2022-08-29T13:23:28.376Z,38.08
2022-08-29T13:26:04.300Z,38.35
2022-08-29T13:28:55.877Z,37.72
2022-08-29T13:31:42.272Z,37.82
2022-08-29T13:34:19.404Z,38.22
2022-08-29T13:36:59.970Z,38.63
2022-08-29T13:39:36.983Z,39.01
2022-08-29T13:42:23.559Z,38.76
2022-08-29T13:44:53.941Z,39.11
2022-08-29T13:47:24.810Z,38.76
2022-08-29T13:50:01.532Z,38.46
2022-08-29T13:52:31.882Z,38.92
2022-08-29T13:55:00.128Z,38.68
2022-08-29T13:57:29.315Z,38.64
2022-08-29T13:59:57.870Z,38.92
2022-08-29T14:02:25.949Z,39.61
2022-08-29T14:04:53.842Z,39.30
2022-08-29T14:07:25.254Z,38.35
2022-08-29T14:09:52.660Z,38.19
2022-08-29T14:12:21.522Z,37.29
2022-08-29T14:15:09.287Z,38.22
2022-08-29T14:17:41.404Z,38.56
2022-08-29T14:20:09.862Z,37.62
2022-08-29T14:22:37.726Z,38.12
2022-08-29T14:25:07.108Z,38.25
2022-08-29T14:27:34.523Z,38.52
2022-08-29T14:30:03.176Z,38.28
2022-08-29T14:32:30.619Z,37.75
2022-08-29T14:34:58.904Z,37.56
2022-08-29T14:37:26.503Z,37.68
2022-08-29T14:39:53.836Z,37.67
2022-08-29T14:42:21.192Z,38.47
2022-08-29T14:44:48.778Z,37.43
2022-08-29T14:47:16.109Z,38.32
2022-08-29T14:49:43.560Z,36.70
2022-08-29T14:52:14.826Z,36.55
2022-08-29T14:54:42.985Z,37.07
2022-08-29T14:57:11.271Z,37.40
2022-08-29T14:59:39.991Z,37.14
2022-08-29T15:02:09.898Z,38.25
2022-08-29T15:04:38.068Z,37.25
2022-08-29T15:07:07.948Z,37.86
2022-08-29T15:09:35.517Z,37.95
2022-08-29T15:12:03.668Z,37.84
2022-08-29T15:14:31.453Z,38.17
2022-08-29T15:16:58.781Z,37.87
2022-08-29T15:22:13.698Z,37.61
2022-08-29T15:24:41.560Z,37.89
2022-08-29T15:27:09.018Z,38.51
2022-08-29T15:29:37.368Z,38.31
2022-08-29T15:32:05.166Z,38.54
2022-08-29T15:34:33.119Z,38.68
2022-08-29T15:37:01.013Z,38.52
2022-08-29T15:39:29.210Z,38.85
2022-08-29T15:41:57.839Z,38.15
2022-08-29T15:44:25.434Z,38.22
2022-08-29T15:46:57.013Z,38.13
2022-08-29T15:49:26.265Z,38.63
2022-08-29T15:51:54.498Z,38.63
2022-08-29T15:54:22.978Z,39.18
2022-08-29T15:56:50.760Z,38.28
2022-08-29T15:59:24.875Z,38.61
2022-08-29T16:02:04.619Z,38.48
2022-08-29T16:04:32.199Z,38.84
2022-08-29T16:06:59.594Z,39.67
2022-08-29T16:09:27.167Z,39.47
2022-08-29T16:11:54.863Z,39.22
2022-08-29T16:17:10.255Z,39.29
2022-08-29T16:19:41.852Z,38.26
2022-08-29T16:22:09.940Z,39.11
2022-08-29T16:24:37.679Z,39.40
2022-08-29T16:27:05.402Z,39.62
2022-08-29T16:29:33.912Z,39.80
2022-08-29T16:32:01.541Z,40.18
2022-08-29T16:34:29.188Z,39.74
2022-08-29T16:36:58.005Z,39.26
2022-08-29T16:39:26.660Z,39.99
2022-08-29T16:41:54.170Z,39.80
2022-08-29T16:44:21.662Z,39.71
2022-08-29T16:46:49.299Z,40.19
2022-08-29T16:49:16.678Z,39.47
2022-08-29T16:51:44.179Z,40.23
2022-08-29T16:54:12.389Z,40.14
2022-08-29T16:56:39.889Z,39.83
2022-08-29T16:59:07.438Z,39.66
2022-08-29T17:01:44.703Z,40.09
2022-08-29T17:04:14.966Z,40.72
2022-08-29T17:06:43.614Z,41.45
2022-08-29T17:09:10.910Z,40.99
2022-08-29T17:11:39.021Z,40.98
2022-08-29T17:14:08.029Z,40.93
2022-08-29T17:16:37.105Z,41.01
2022-08-29T17:19:06.735Z,41.26
2022-08-29T17:21:35.421Z,41.78
2022-08-29T17:24:06.632Z,41.64
2022-08-29T17:26:36.793Z,41.61
2022-08-29T17:29:08.646Z,42.03
2022-08-29T17:31:38.882Z,41.70
2022-08-29T17:34:07.379Z,44.63
2022-08-29T17:36:40.478Z,42.54
2022-08-29T17:39:08.406Z,43.02
2022-08-29T17:41:37.399Z,42.41
2022-08-29T17:44:07.118Z,42.30
2022-08-29T17:46:35.332Z,42.43
2022-08-29T17:49:07.962Z,42.61
2022-08-29T17:51:37.945Z,42.83
2022-08-29T17:54:12.487Z,42.88
2022-08-29T17:56:51.122Z,43.12
2022-08-29T17:59:19.752Z,43.07
2022-08-29T18:01:47.743Z,43.25
2022-08-29T18:04:15.559Z,43.54
2022-08-29T18:06:43.047Z,43.79
2022-08-29T18:09:11.180Z,44.12
2022-08-29T18:11:40.851Z,44.28
2022-08-29T18:14:08.663Z,44.88
2022-08-29T18:16:36.718Z,45.12
2022-08-29T18:19:05.328Z,45.20
2022-08-29T18:21:33.059Z,45.28
2022-08-29T18:24:00.907Z,45.52
2022-08-29T18:26:28.559Z,45.62
2022-08-29T18:28:56.156Z,46.06
2022-08-29T18:31:23.712Z,46.29
2022-08-29T18:34:06.700Z,46.47
2022-08-29T18:36:35.801Z,46.48
2022-08-29T18:39:04.745Z,46.62
2022-08-29T18:41:32.229Z,46.87
2022-08-29T18:43:59.695Z,47.17
2022-08-29T18:46:28.102Z,47.16
2022-08-29T18:48:55.576Z,47.25
2022-08-29T18:51:23.201Z,47.11
2022-08-29T18:53:50.811Z,46.94
2022-08-29T18:56:18.150Z,47.59
2022-08-29T18:58:45.758Z,47.43
2022-08-29T19:01:17.807Z,47.16
2022-08-29T19:04:01.063Z,47.21
2022-08-29T19:06:28.694Z,47.16
2022-08-29T19:08:57.002Z,47.03
2022-08-29T19:11:25.266Z,46.87
2022-08-29T19:13:53.948Z,47.44
2022-08-29T19:16:23.822Z,47.60
2022-08-29T19:18:51.834Z,47.61
2022-08-29T19:21:19.458Z,47.92
2022-08-29T19:23:52.684Z,48.24
2022-08-29T19:26:28.267Z,48.18
2022-08-29T19:28:59.466Z,48.51
2022-08-29T19:31:28.969Z,48.77
2022-08-29T19:33:57.315Z,49.10
2022-08-29T19:36:24.981Z,49.33
2022-08-29T19:38:53.070Z,49.38
2022-08-29T19:41:20.397Z,49.52
2022-08-29T19:43:47.993Z,49.43
2022-08-29T19:46:19.980Z,49.51
2022-08-29T19:48:51.034Z,49.79
2022-08-29T19:51:21.216Z,50.35
2022-08-29T19:53:49.032Z,50.44
2022-08-29T19:56:17.391Z,50.52
2022-08-29T19:58:45.423Z,50.75
2022-08-29T20:01:12.886Z,50.69
2022-08-29T20:03:41.361Z,50.87
2022-08-29T20:06:09.186Z,50.95
2022-08-29T20:08:41.588Z,51.44
2022-08-29T20:11:14.418Z,51.30
2022-08-29T20:13:50.107Z,51.39
2022-08-29T20:16:20.746Z,51.65
2022-08-29T20:18:50.233Z,51.68
2022-08-29T20:21:19.241Z,51.79
2022-08-29T20:23:49.170Z,51.83
2022-08-29T20:26:20.176Z,51.95
2022-08-29T20:28:49.438Z,52.17
2022-08-29T20:31:18.718Z,52.28
2022-08-29T20:33:48.216Z,52.29
2022-08-29T20:36:35.773Z,52.83
2022-08-29T20:39:08.998Z,52.90
2022-08-29T20:41:36.632Z,53.65
2022-08-29T20:44:07.511Z,53.67
2022-08-29T20:46:42.285Z,53.43
2022-08-29T20:49:11.301Z,53.23
2022-08-29T20:51:39.503Z,53.06
2022-08-29T20:54:06.881Z,53.40
2022-08-29T20:56:34.223Z,53.63
2022-08-29T20:59:01.817Z,53.70
2022-08-29T21:01:29.247Z,53.62
2022-08-29T21:04:15.142Z,53.52
2022-08-29T21:06:49.680Z,53.85
2022-08-29T21:09:17.254Z,53.67
2022-08-29T21:11:44.641Z,53.83
2022-08-29T21:14:12.270Z,53.90
2022-08-29T21:16:39.721Z,53.98
2022-08-29T21:19:09.696Z,54.09
2022-08-29T21:21:39.188Z,54.76
2022-08-29T21:24:07.336Z,54.60
2022-08-29T21:26:34.715Z,54.83
2022-08-29T21:29:03.155Z,54.55
2022-08-29T21:31:30.607Z,54.54
2022-08-29T21:33:57.949Z,54.86
2022-08-29T21:36:27.315Z,54.88
2022-08-29T21:38:56.958Z,54.94
2022-08-29T21:41:25.301Z,54.92
2022-08-29T21:43:53.385Z,54.88
2022-08-29T21:46:23.807Z,54.90
2022-08-29T21:48:57.001Z,54.87
2022-08-29T21:51:24.978Z,55.20
2022-08-29T21:53:55.476Z,55.29
2022-08-29T21:56:24.007Z,55.56
2022-08-29T21:58:54.133Z,55.38
2022-08-29T22:01:23.954Z,55.47
2022-08-29T22:03:51.689Z,55.57
2022-08-29T22:06:19.267Z,55.92
2022-08-29T22:08:47.490Z,56.03
2022-08-29T22:11:22.538Z,55.85
2022-08-29T22:13:51.384Z,55.96
2022-08-29T22:16:29.576Z,56.11
2022-08-29T22:19:06.552Z,56.14
2022-08-29T22:21:49.335Z,56.17
2022-08-29T22:24:17.895Z,56.29
2022-08-29T22:26:45.726Z,56.22
2022-08-29T22:29:15.851Z,56.06
2022-08-29T22:31:44.287Z,56.27
2022-08-29T22:34:16.034Z,56.43
2022-08-29T22:36:43.667Z,56.27
2022-08-29T22:39:11.044Z,56.49
2022-08-29T22:41:38.758Z,56.37
2022-08-29T22:46:55.438Z,56.80
2022-08-29T22:49:23.014Z,56.95
2022-08-29T22:51:55.248Z,56.85
2022-08-29T22:54:37.354Z,56.90
2022-08-29T22:57:16.254Z,57.14
2022-08-29T22:59:44.907Z,57.18
2022-08-29T23:02:12.916Z,57.25
2022-08-29T23:04:40.694Z,57.01
2022-08-29T23:07:08.358Z,57.08
2022-08-29T23:09:41.450Z,57.39
2022-08-29T23:12:11.591Z,57.30
2022-08-29T23:14:41.441Z,57.35
2022-08-29T23:17:09.070Z,57.25
2022-08-29T23:19:36.658Z,57.40
2022-08-29T23:22:06.465Z,57.42
2022-08-29T23:24:34.025Z,57.54
2022-08-29T23:27:01.400Z,57.67
2022-08-29T23:29:30.971Z,57.63
2022-08-29T23:31:58.806Z,57.70
2022-08-29T23:34:26.755Z,57.94
2022-08-29T23:36:54.401Z,57.84
2022-08-29T23:39:21.724Z,57.73
2022-08-29T23:41:49.086Z,57.88
2022-08-29T23:44:17.520Z,57.95
2022-08-29T23:46:45.481Z,57.73
2022-08-29T23:49:12.960Z,58.08
2022-08-29T23:51:40.607Z,57.82
2022-08-29T23:54:08.348Z,58.08
2022-08-29T23:56:35.684Z,58.11
2022-08-29T23:59:03.342Z,58.13
